WAT5643 YPAD-YREN
Flight info
| Callsign | WAT5643 |
|---|---|
| Flight time | 0h 54m |
| Altitude | 3000 |
| Route | AD |
| Aircraft | EC35/L-VGD/C |
Departure
| Time | 2026-04-26 20:13 |
|---|---|
| Airport | Adelaide International Airport (YPAD) |
Arrival
| Time | 2026-04-26 21:07 |
|---|---|
| Airport | Renmark Airport (YREN) |
| Time | Latitude | Longitude | Altitude | Speed | Heading |
|---|---|---|---|---|---|
| 2026-04-26 20:10 | -34.94652 | 138.52274 | 27 ft | 0 kts | 356° |
| 2026-04-26 20:12 | -34.94647 | 138.52287 | 33 ft | 6 kts | 42° |
| 2026-04-26 20:12 | -34.94632 | 138.52344 | 64 ft | 4 kts | 67° |
| 2026-04-26 20:12 | -34.94583 | 138.52452 | 118 ft | 29 kts | 58° |
| 2026-04-26 20:12 | -34.94444 | 138.52771 | 335 ft | 59 kts | 69° |
| 2026-04-26 20:13 | -34.94300 | 138.53307 | 599 ft | 76 kts | 72° |
| 2026-04-26 20:13 | -34.94120 | 138.53940 | 819 ft | 88 kts | 70° |
| 2026-04-26 20:13 | -34.93914 | 138.54623 | 1044 ft | 91 kts | 70° |
| 2026-04-26 20:13 | -34.93631 | 138.55524 | 1334 ft | 93 kts | 69° |
| 2026-04-26 20:14 | -34.93489 | 138.55969 | 1476 ft | 93 kts | 71° |
| 2026-04-26 20:14 | -34.93272 | 138.56635 | 1689 ft | 93 kts | 70° |
| 2026-04-26 20:14 | -34.93045 | 138.57297 | 1904 ft | 92 kts | 71° |
| 2026-04-26 20:14 | -34.92819 | 138.57958 | 2121 ft | 92 kts | 70° |
| 2026-04-26 20:15 | -34.92594 | 138.58633 | 2340 ft | 92 kts | 69° |
| 2026-04-26 20:15 | -34.92382 | 138.59309 | 2559 ft | 91 kts | 70° |
| 2026-04-26 20:15 | -34.92171 | 138.60043 | 2803 ft | 100 kts | 70° |
| 2026-04-26 20:15 | -34.91945 | 138.60887 | 2967 ft | 111 kts | 71° |
| 2026-04-26 20:16 | -34.91693 | 138.61809 | 2989 ft | 121 kts | 70° |
| 2026-04-26 20:16 | -34.91440 | 138.62730 | 2991 ft | 124 kts | 70° |
| 2026-04-26 20:16 | -34.91148 | 138.63736 | 2992 ft | 128 kts | 68° |
| 2026-04-26 20:16 | -34.90831 | 138.64722 | 2993 ft | 129 kts | 66° |
| 2026-04-26 20:17 | -34.90506 | 138.65678 | 2992 ft | 129 kts | 66° |
| 2026-04-26 20:17 | -34.90182 | 138.66637 | 2990 ft | 129 kts | 66° |
| 2026-04-26 20:17 | -34.89858 | 138.67592 | 2990 ft | 129 kts | 66° |
| 2026-04-26 20:17 | -34.89519 | 138.68596 | 2987 ft | 129 kts | 66° |
| 2026-04-26 20:18 | -34.89177 | 138.69601 | 2983 ft | 129 kts | 66° |
| 2026-04-26 20:18 | -34.88839 | 138.70595 | 2982 ft | 128 kts | 65° |
| 2026-04-26 20:18 | -34.88490 | 138.71587 | 2972 ft | 128 kts | 65° |
| 2026-04-26 20:18 | -34.88139 | 138.72565 | 2980 ft | 127 kts | 65° |
| 2026-04-26 20:19 | -34.87786 | 138.73558 | 2989 ft | 132 kts | 64° |
| 2026-04-26 20:19 | -34.87422 | 138.74568 | 2983 ft | 133 kts | 64° |
| 2026-04-26 20:19 | -34.87054 | 138.75575 | 2987 ft | 133 kts | 64° |
| 2026-04-26 20:19 | -34.86682 | 138.76598 | 2982 ft | 134 kts | 64° |
| 2026-04-26 20:20 | -34.86312 | 138.77618 | 2978 ft | 134 kts | 64° |
| 2026-04-26 20:20 | -34.85943 | 138.78641 | 2978 ft | 133 kts | 65° |
| 2026-04-26 20:20 | -34.85573 | 138.79666 | 2983 ft | 133 kts | 65° |
| 2026-04-26 20:20 | -34.85198 | 138.80698 | 2984 ft | 134 kts | 65° |
| 2026-04-26 20:21 | -34.84826 | 138.81723 | 2983 ft | 134 kts | 65° |
| 2026-04-26 20:21 | -34.84452 | 138.82752 | 2984 ft | 134 kts | 65° |
| 2026-04-26 20:21 | -34.84080 | 138.83768 | 2980 ft | 134 kts | 65° |
| 2026-04-26 20:21 | -34.83697 | 138.84816 | 2984 ft | 134 kts | 65° |
| 2026-04-26 20:22 | -34.83316 | 138.85857 | 2984 ft | 134 kts | 64° |
| 2026-04-26 20:22 | -34.82932 | 138.86905 | 2981 ft | 134 kts | 64° |
| 2026-04-26 20:22 | -34.82549 | 138.87950 | 2985 ft | 134 kts | 64° |
| 2026-04-26 20:22 | -34.82165 | 138.89000 | 2985 ft | 134 kts | 64° |
| 2026-04-26 20:23 | -34.81782 | 138.90048 | 2982 ft | 134 kts | 65° |
| 2026-04-26 20:23 | -34.81398 | 138.91109 | 2983 ft | 132 kts | 65° |
| 2026-04-26 20:23 | -34.81024 | 138.92133 | 2984 ft | 132 kts | 65° |
| 2026-04-26 20:23 | -34.80653 | 138.93147 | 2983 ft | 133 kts | 65° |
| 2026-04-26 20:24 | -34.80273 | 138.94191 | 2985 ft | 133 kts | 65° |
| 2026-04-26 20:24 | -34.79894 | 138.95235 | 2986 ft | 132 kts | 65° |
| 2026-04-26 20:24 | -34.79517 | 138.96258 | 2989 ft | 132 kts | 64° |
| 2026-04-26 20:24 | -34.79136 | 138.97299 | 2995 ft | 131 kts | 65° |
| 2026-04-26 20:25 | -34.78757 | 138.98332 | 2999 ft | 132 kts | 65° |
| 2026-04-26 20:25 | -34.78501 | 138.99025 | 2996 ft | 132 kts | 65° |
| 2026-04-26 20:25 | -34.77989 | 139.00417 | 2998 ft | 131 kts | 64° |
| 2026-04-26 20:25 | -34.77605 | 139.01450 | 2998 ft | 130 kts | 64° |
| 2026-04-26 20:26 | -34.77225 | 139.02478 | 2997 ft | 130 kts | 64° |
| 2026-04-26 20:26 | -34.76844 | 139.03510 | 2999 ft | 131 kts | 64° |
| 2026-04-26 20:26 | -34.76463 | 139.04547 | 2999 ft | 131 kts | 64° |
| 2026-04-26 20:26 | -34.76084 | 139.05576 | 2998 ft | 131 kts | 65° |
| 2026-04-26 20:27 | -34.75703 | 139.06622 | 2998 ft | 130 kts | 65° |
| 2026-04-26 20:27 | -34.75326 | 139.07657 | 2997 ft | 130 kts | 65° |
| 2026-04-26 20:27 | -34.74950 | 139.08681 | 2998 ft | 129 kts | 65° |
| 2026-04-26 20:27 | -34.74573 | 139.09705 | 2999 ft | 129 kts | 65° |
| 2026-04-26 20:28 | -34.74191 | 139.10745 | 2999 ft | 129 kts | 65° |
| 2026-04-26 20:28 | -34.73808 | 139.11789 | 2995 ft | 129 kts | 65° |
| 2026-04-26 20:28 | -34.73430 | 139.12823 | 3001 ft | 129 kts | 64° |
| 2026-04-26 20:28 | -34.73047 | 139.13860 | 3000 ft | 129 kts | 64° |
| 2026-04-26 20:29 | -34.72651 | 139.14908 | 2996 ft | 129 kts | 63° |
| 2026-04-26 20:29 | -34.72269 | 139.15933 | 2997 ft | 128 kts | 65° |
| 2026-04-26 20:29 | -34.71896 | 139.16951 | 2998 ft | 128 kts | 65° |
| 2026-04-26 20:29 | -34.71521 | 139.17982 | 3000 ft | 127 kts | 65° |
| 2026-04-26 20:30 | -34.71140 | 139.19012 | 2995 ft | 127 kts | 65° |
| 2026-04-26 20:30 | -34.70769 | 139.20027 | 2999 ft | 127 kts | 65° |
| 2026-04-26 20:30 | -34.70405 | 139.21019 | 3001 ft | 127 kts | 64° |
| 2026-04-26 20:30 | -34.70020 | 139.22052 | 3002 ft | 128 kts | 65° |
| 2026-04-26 20:31 | -34.69645 | 139.23077 | 3002 ft | 127 kts | 65° |
| 2026-04-26 20:31 | -34.69262 | 139.24120 | 3001 ft | 127 kts | 64° |
| 2026-04-26 20:31 | -34.68881 | 139.25140 | 3005 ft | 127 kts | 63° |
| 2026-04-26 20:31 | -34.68366 | 139.26514 | 3002 ft | 127 kts | 63° |
| 2026-04-26 20:32 | -34.68104 | 139.27212 | 3001 ft | 127 kts | 63° |
| 2026-04-26 20:32 | -34.67722 | 139.28230 | 2998 ft | 127 kts | 65° |
| 2026-04-26 20:32 | -34.67347 | 139.29262 | 2998 ft | 127 kts | 65° |
| 2026-04-26 20:32 | -34.66974 | 139.30281 | 2997 ft | 126 kts | 65° |
| 2026-04-26 20:33 | -34.66595 | 139.31310 | 2998 ft | 126 kts | 64° |
| 2026-04-26 20:33 | -34.66219 | 139.32323 | 2998 ft | 126 kts | 64° |
| 2026-04-26 20:33 | -34.65846 | 139.33325 | 2998 ft | 125 kts | 64° |
| 2026-04-26 20:33 | -34.65470 | 139.34337 | 2997 ft | 125 kts | 64° |
| 2026-04-26 20:34 | -34.65099 | 139.35344 | 2996 ft | 126 kts | 65° |
| 2026-04-26 20:34 | -34.64730 | 139.36368 | 2998 ft | 126 kts | 65° |
| 2026-04-26 20:34 | -34.64354 | 139.37392 | 2998 ft | 126 kts | 64° |
| 2026-04-26 20:34 | -34.63968 | 139.38419 | 2998 ft | 127 kts | 64° |
| 2026-04-26 20:35 | -34.63594 | 139.39414 | 2998 ft | 127 kts | 64° |
| 2026-04-26 20:35 | -34.63213 | 139.40428 | 2997 ft | 128 kts | 64° |
| 2026-04-26 20:35 | -34.62831 | 139.41461 | 2994 ft | 127 kts | 65° |
| 2026-04-26 20:35 | -34.62458 | 139.42473 | 2994 ft | 127 kts | 65° |
| 2026-04-26 20:36 | -34.62081 | 139.43489 | 2995 ft | 127 kts | 64° |
| 2026-04-26 20:36 | -34.61702 | 139.44498 | 2994 ft | 127 kts | 64° |
| 2026-04-26 20:36 | -34.61322 | 139.45523 | 2996 ft | 127 kts | 64° |
| 2026-04-26 20:36 | -34.60942 | 139.46535 | 2996 ft | 127 kts | 64° |
| 2026-04-26 20:37 | -34.60561 | 139.47539 | 2994 ft | 126 kts | 64° |
| 2026-04-26 20:37 | -34.60184 | 139.48546 | 2995 ft | 126 kts | 64° |
| 2026-04-26 20:37 | -34.59808 | 139.49548 | 2995 ft | 126 kts | 64° |
| 2026-04-26 20:37 | -34.59434 | 139.50549 | 2995 ft | 126 kts | 64° |
| 2026-04-26 20:38 | -34.59063 | 139.51546 | 2996 ft | 126 kts | 64° |
| 2026-04-26 20:38 | -34.58684 | 139.52560 | 2997 ft | 127 kts | 65° |
| 2026-04-26 20:38 | -34.58310 | 139.53572 | 2996 ft | 127 kts | 64° |
| 2026-04-26 20:38 | -34.57939 | 139.54565 | 2996 ft | 127 kts | 64° |
| 2026-04-26 20:39 | -34.57567 | 139.55562 | 2997 ft | 126 kts | 64° |
| 2026-04-26 20:39 | -34.57200 | 139.56545 | 2995 ft | 127 kts | 64° |
| 2026-04-26 20:39 | -34.56831 | 139.57527 | 2995 ft | 127 kts | 63° |
| 2026-04-26 20:39 | -34.56329 | 139.58844 | 2995 ft | 127 kts | 63° |
| 2026-04-26 20:40 | -34.56083 | 139.59489 | 2995 ft | 126 kts | 63° |
| 2026-04-26 20:40 | -34.55709 | 139.60475 | 2995 ft | 126 kts | 63° |
| 2026-04-26 20:40 | -34.55338 | 139.61450 | 2993 ft | 126 kts | 63° |
| 2026-04-26 20:40 | -34.54948 | 139.62474 | 2863 ft | 133 kts | 63° |
| 2026-04-26 20:41 | -34.54553 | 139.63525 | 2733 ft | 134 kts | 64° |
| 2026-04-26 20:41 | -34.54170 | 139.64561 | 2607 ft | 134 kts | 65° |
| 2026-04-26 20:41 | -34.53787 | 139.65622 | 2480 ft | 134 kts | 66° |
| 2026-04-26 20:41 | -34.53410 | 139.66666 | 2357 ft | 134 kts | 66° |
| 2026-04-26 20:42 | -34.53029 | 139.67719 | 2233 ft | 135 kts | 66° |
| 2026-04-26 20:42 | -34.52642 | 139.68768 | 2109 ft | 135 kts | 66° |
| 2026-04-26 20:42 | -34.52253 | 139.69821 | 1983 ft | 135 kts | 66° |
| 2026-04-26 20:42 | -34.51868 | 139.70862 | 1906 ft | 132 kts | 67° |
| 2026-04-26 20:43 | -34.51499 | 139.71872 | 1896 ft | 129 kts | 68° |
| 2026-04-26 20:43 | -34.51133 | 139.72875 | 1895 ft | 127 kts | 67° |
| 2026-04-26 20:43 | -34.50767 | 139.73860 | 1894 ft | 127 kts | 67° |
| 2026-04-26 20:43 | -34.50393 | 139.74857 | 1894 ft | 127 kts | 66° |
| 2026-04-26 20:44 | -34.50020 | 139.75835 | 1895 ft | 128 kts | 66° |
| 2026-04-26 20:44 | -34.49644 | 139.76827 | 1894 ft | 128 kts | 66° |
| 2026-04-26 20:44 | -34.49266 | 139.77828 | 1892 ft | 127 kts | 68° |
| 2026-04-26 20:44 | -34.48900 | 139.78842 | 1891 ft | 127 kts | 69° |
| 2026-04-26 20:45 | -34.48537 | 139.79849 | 1892 ft | 127 kts | 67° |
| 2026-04-26 20:45 | -34.48162 | 139.80844 | 1892 ft | 127 kts | 66° |
| 2026-04-26 20:45 | -34.47776 | 139.81845 | 1893 ft | 127 kts | 67° |
| 2026-04-26 20:45 | -34.47403 | 139.82855 | 1892 ft | 127 kts | 68° |
| 2026-04-26 20:46 | -34.47033 | 139.83853 | 1891 ft | 127 kts | 67° |
| 2026-04-26 20:46 | -34.46655 | 139.84856 | 1892 ft | 128 kts | 67° |
| 2026-04-26 20:46 | -34.46269 | 139.85867 | 1890 ft | 128 kts | 66° |
| 2026-04-26 20:46 | -34.45887 | 139.86868 | 1892 ft | 127 kts | 67° |
| 2026-04-26 20:47 | -34.45511 | 139.87874 | 1893 ft | 127 kts | 67° |
| 2026-04-26 20:47 | -34.45263 | 139.88535 | 1893 ft | 126 kts | 68° |
| 2026-04-26 20:47 | -34.44768 | 139.89876 | 1895 ft | 126 kts | 68° |
| 2026-04-26 20:47 | -34.44392 | 139.90874 | 1895 ft | 127 kts | 68° |
| 2026-04-26 20:48 | -34.44013 | 139.91876 | 1897 ft | 127 kts | 67° |
| 2026-04-26 20:48 | -34.43636 | 139.92879 | 1900 ft | 127 kts | 67° |
| 2026-04-26 20:48 | -34.43255 | 139.93877 | 1901 ft | 127 kts | 67° |
| 2026-04-26 20:48 | -34.42874 | 139.94878 | 1902 ft | 127 kts | 66° |
| 2026-04-26 20:49 | -34.42485 | 139.95892 | 1900 ft | 127 kts | 66° |
| 2026-04-26 20:49 | -34.42100 | 139.96898 | 1899 ft | 127 kts | 66° |
| 2026-04-26 20:49 | -34.41719 | 139.97908 | 1899 ft | 127 kts | 67° |
| 2026-04-26 20:49 | -34.41345 | 139.98910 | 1901 ft | 126 kts | 67° |
| 2026-04-26 20:50 | -34.40962 | 139.99916 | 1901 ft | 127 kts | 66° |
| 2026-04-26 20:50 | -34.40580 | 140.00914 | 1899 ft | 127 kts | 66° |
| 2026-04-26 20:50 | -34.40200 | 140.01909 | 1899 ft | 127 kts | 66° |
| 2026-04-26 20:50 | -34.39819 | 140.02902 | 1897 ft | 127 kts | 66° |
| 2026-04-26 20:51 | -34.39438 | 140.03909 | 1897 ft | 127 kts | 67° |
| 2026-04-26 20:51 | -34.39070 | 140.04887 | 1895 ft | 127 kts | 67° |
| 2026-04-26 20:51 | -34.38690 | 140.05884 | 1894 ft | 128 kts | 66° |
| 2026-04-26 20:51 | -34.38305 | 140.06882 | 1894 ft | 127 kts | 66° |
| 2026-04-26 20:52 | -34.37931 | 140.07869 | 1896 ft | 127 kts | 66° |
| 2026-04-26 20:52 | -34.37556 | 140.08856 | 1897 ft | 127 kts | 66° |
| 2026-04-26 20:52 | -34.37171 | 140.09866 | 1897 ft | 127 kts | 66° |
| 2026-04-26 20:52 | -34.36792 | 140.10864 | 1898 ft | 126 kts | 66° |
| 2026-04-26 20:53 | -34.36418 | 140.11842 | 1898 ft | 126 kts | 66° |
| 2026-04-26 20:53 | -34.36035 | 140.12828 | 1897 ft | 127 kts | 65° |
| 2026-04-26 20:53 | -34.35647 | 140.13820 | 1897 ft | 127 kts | 65° |
| 2026-04-26 20:53 | -34.35262 | 140.14816 | 1896 ft | 127 kts | 66° |
| 2026-04-26 20:54 | -34.34887 | 140.15797 | 1896 ft | 127 kts | 66° |
| 2026-04-26 20:54 | -34.34510 | 140.16788 | 1897 ft | 127 kts | 65° |
| 2026-04-26 20:54 | -34.34134 | 140.17770 | 1895 ft | 127 kts | 65° |
| 2026-04-26 20:54 | -34.33757 | 140.18759 | 1892 ft | 127 kts | 66° |
| 2026-04-26 20:55 | -34.33382 | 140.19748 | 1892 ft | 127 kts | 65° |
| 2026-04-26 20:55 | -34.33007 | 140.20728 | 1892 ft | 126 kts | 65° |
| 2026-04-26 20:55 | -34.32631 | 140.21710 | 1893 ft | 127 kts | 65° |
| 2026-04-26 20:55 | -34.32251 | 140.22702 | 1894 ft | 127 kts | 65° |
| 2026-04-26 20:56 | -34.31878 | 140.23682 | 1895 ft | 127 kts | 65° |
| 2026-04-26 20:56 | -34.31500 | 140.24670 | 1891 ft | 127 kts | 66° |
| 2026-04-26 20:56 | -34.31134 | 140.25682 | 1890 ft | 126 kts | 69° |
| 2026-04-26 20:56 | -34.30756 | 140.26694 | 1890 ft | 127 kts | 65° |
| 2026-04-26 20:57 | -34.30378 | 140.27675 | 1890 ft | 127 kts | 67° |
| 2026-04-26 20:57 | -34.30008 | 140.28650 | 1889 ft | 127 kts | 66° |
| 2026-04-26 20:57 | -34.29633 | 140.29625 | 1889 ft | 127 kts | 66° |
| 2026-04-26 20:57 | -34.29256 | 140.30602 | 1890 ft | 127 kts | 65° |
| 2026-04-26 20:58 | -34.28879 | 140.31573 | 1889 ft | 127 kts | 65° |
| 2026-04-26 20:58 | -34.28507 | 140.32533 | 1889 ft | 127 kts | 65° |
| 2026-04-26 20:58 | -34.28128 | 140.33511 | 1889 ft | 127 kts | 65° |
| 2026-04-26 20:58 | -34.27756 | 140.34474 | 1889 ft | 127 kts | 65° |
| 2026-04-26 20:59 | -34.27381 | 140.35448 | 1890 ft | 127 kts | 65° |
| 2026-04-26 20:59 | -34.27019 | 140.36417 | 1886 ft | 127 kts | 68° |
| 2026-04-26 20:59 | -34.26749 | 140.37431 | 1886 ft | 127 kts | 75° |
| 2026-04-26 20:59 | -34.26534 | 140.38460 | 1889 ft | 126 kts | 77° |
| 2026-04-26 21:00 | -34.26310 | 140.39497 | 1886 ft | 127 kts | 76° |
| 2026-04-26 21:00 | -34.26074 | 140.40535 | 1886 ft | 126 kts | 75° |
| 2026-04-26 21:00 | -34.25831 | 140.41565 | 1882 ft | 127 kts | 75° |
| 2026-04-26 21:00 | -34.25583 | 140.42596 | 1884 ft | 126 kts | 75° |
| 2026-04-26 21:01 | -34.25338 | 140.43622 | 1887 ft | 126 kts | 74° |
| 2026-04-26 21:01 | -34.25095 | 140.44630 | 1884 ft | 126 kts | 73° |
| 2026-04-26 21:01 | -34.24840 | 140.45647 | 1852 ft | 120 kts | 71° |
| 2026-04-26 21:01 | -34.24605 | 140.46573 | 1868 ft | 112 kts | 73° |
| 2026-04-26 21:02 | -34.24395 | 140.47484 | 1865 ft | 109 kts | 74° |
| 2026-04-26 21:02 | -34.24194 | 140.48360 | 1866 ft | 106 kts | 75° |
| 2026-04-26 21:02 | -34.23999 | 140.49223 | 1874 ft | 106 kts | 76° |
| 2026-04-26 21:02 | -34.23809 | 140.50070 | 1880 ft | 105 kts | 76° |
| 2026-04-26 21:03 | -34.23612 | 140.50929 | 1884 ft | 106 kts | 76° |
| 2026-04-26 21:03 | -34.23412 | 140.51793 | 1885 ft | 106 kts | 76° |
| 2026-04-26 21:03 | -34.23216 | 140.52661 | 1884 ft | 106 kts | 76° |
| 2026-04-26 21:03 | -34.23014 | 140.53522 | 1883 ft | 106 kts | 75° |
| 2026-04-26 21:04 | -34.22803 | 140.54390 | 1854 ft | 109 kts | 75° |
| 2026-04-26 21:04 | -34.22573 | 140.55299 | 1723 ft | 115 kts | 74° |
| 2026-04-26 21:04 | -34.22344 | 140.56226 | 1575 ft | 114 kts | 71° |
| 2026-04-26 21:04 | -34.22113 | 140.57092 | 1424 ft | 103 kts | 72° |
| 2026-04-26 21:05 | -34.21917 | 140.57906 | 1292 ft | 98 kts | 73° |
| 2026-04-26 21:05 | -34.21734 | 140.58688 | 1163 ft | 97 kts | 73° |
| 2026-04-26 21:05 | -34.21545 | 140.59482 | 1030 ft | 96 kts | 73° |
| 2026-04-26 21:05 | -34.21354 | 140.60269 | 894 ft | 97 kts | 73° |
| 2026-04-26 21:06 | -34.21168 | 140.61055 | 763 ft | 97 kts | 73° |
| 2026-04-26 21:06 | -34.20981 | 140.61852 | 630 ft | 98 kts | 73° |
| 2026-04-26 21:06 | -34.20795 | 140.62646 | 499 ft | 98 kts | 73° |
| 2026-04-26 21:06 | -34.20611 | 140.63449 | 372 ft | 99 kts | 86° |
| 2026-04-26 21:07 | -34.20494 | 140.64229 | 318 ft | 84 kts | 69° |
| 2026-04-26 21:07 | -34.20314 | 140.64816 | 318 ft | 66 kts | 69° |
| 2026-04-26 21:07 | -34.20203 | 140.65300 | 227 ft | 50 kts | 71° |
| 2026-04-26 21:07 | -34.20127 | 140.65601 | 166 ft | 24 kts | 74° |
| 2026-04-26 21:08 | -34.20057 | 140.65826 | 170 ft | 36 kts | 79° |
| 2026-04-26 21:08 | -34.19996 | 140.66071 | 123 ft | 14 kts | 83° |
| 2026-04-26 21:08 | -34.19999 | 140.66107 | 123 ft | 0 kts | 77° |
| 2026-04-26 21:10 | -34.20031 | 140.66176 | 147 ft | 18 kts | 135° |
| 2026-04-26 21:11 | -34.20255 | 140.66272 | 336 ft | 60 kts | 171° |
| 2026-04-26 21:11 | -34.20759 | 140.66187 | 563 ft | 83 kts | 184° |
| 2026-04-26 21:11 | -34.21351 | 140.66205 | 775 ft | 91 kts | 113° |
| 2026-04-26 21:11 | -34.20795 | 140.66324 | 481 ft | 86 kts | 359° |
| 2026-04-26 21:12 | -34.20207 | 140.66481 | 422 ft | 95 kts | 12° |
| 2026-04-26 21:12 | -34.19805 | 140.66885 | 235 ft | 59 kts | 66° |
| 2026-04-26 21:12 | -34.19746 | 140.67192 | 129 ft | 16 kts | 77° |
| 2026-04-26 21:12 | -34.19738 | 140.67210 | 120 ft | 0 kts | 81° |
| 2026-04-26 21:13 | -34.19803 | 140.67227 | 151 ft | 29 kts | 173° |
| 2026-04-26 21:13 | -34.20166 | 140.67120 | 286 ft | 74 kts | 193° |
| 2026-04-26 21:13 | -34.20777 | 140.66951 | 303 ft | 101 kts | 187° |
| 2026-04-26 21:13 | -34.21506 | 140.66782 | 373 ft | 108 kts | 187° |
| 2026-04-26 21:14 | -34.22275 | 140.66602 | 495 ft | 113 kts | 188° |
| 2026-04-26 21:14 | -34.23052 | 140.66419 | 623 ft | 115 kts | 187° |
| 2026-04-26 21:14 | -34.23842 | 140.66235 | 752 ft | 115 kts | 187° |
| 2026-04-26 21:14 | -34.24646 | 140.66138 | 879 ft | 114 kts | 178° |
| 2026-04-26 21:15 | -34.25463 | 140.66138 | 946 ft | 119 kts | 174° |
| 2026-04-26 21:15 | -34.26310 | 140.66167 | 951 ft | 123 kts | 173° |
| 2026-04-26 21:15 | -34.27179 | 140.66188 | 950 ft | 124 kts | 174° |
| 2026-04-26 21:15 | -34.28048 | 140.66197 | 953 ft | 124 kts | 175° |
| 2026-04-26 21:16 | -34.28909 | 140.66202 | 954 ft | 124 kts | 175° |
| 2026-04-26 21:16 | -34.29777 | 140.66209 | 955 ft | 124 kts | 174° |
| 2026-04-26 21:16 | -34.30647 | 140.66223 | 953 ft | 124 kts | 175° |
| 2026-04-26 21:16 | -34.31523 | 140.66238 | 954 ft | 124 kts | 175° |
| 2026-04-26 21:17 | -34.32389 | 140.66252 | 954 ft | 124 kts | 175° |
| 2026-04-26 21:17 | -34.33264 | 140.66266 | 953 ft | 124 kts | 175° |
| 2026-04-26 21:17 | -34.34136 | 140.66278 | 952 ft | 125 kts | 175° |
| 2026-04-26 21:17 | -34.35305 | 140.66273 | 944 ft | 124 kts | 175° |
| 2026-04-26 21:18 | -34.35875 | 140.66269 | 951 ft | 120 kts | 176° |
| 2026-04-26 21:18 | -34.36734 | 140.66267 | 895 ft | 127 kts | 176° |
| 2026-04-26 21:18 | -34.37653 | 140.66278 | 765 ft | 134 kts | 176° |
| 2026-04-26 21:18 | -34.38604 | 140.66292 | 643 ft | 136 kts | 176° |
| 2026-04-26 21:19 | -34.39554 | 140.66310 | 517 ft | 136 kts | 176° |
| 2026-04-26 21:19 | -34.40492 | 140.66324 | 395 ft | 135 kts | 176° |
| 2026-04-26 21:19 | -34.41436 | 140.66339 | 281 ft | 134 kts | 176° |
| 2026-04-26 21:19 | -34.42366 | 140.66354 | 258 ft | 131 kts | 176° |
| 2026-04-26 21:20 | -34.43277 | 140.66371 | 250 ft | 129 kts | 176° |
| 2026-04-26 21:20 | -34.44185 | 140.66382 | 249 ft | 128 kts | 176° |
| 2026-04-26 21:20 | -34.45077 | 140.66393 | 235 ft | 125 kts | 174° |
| 2026-04-26 21:20 | -34.45913 | 140.66396 | 190 ft | 113 kts | 174° |
| 2026-04-26 21:21 | -34.46585 | 140.66397 | 244 ft | 80 kts | 170° |
| 2026-04-26 21:21 | -34.47063 | 140.66415 | 213 ft | 55 kts | 165° |
| 2026-04-26 21:21 | -34.47373 | 140.66449 | 233 ft | 34 kts | 164° |
| 2026-04-26 21:21 | -34.47579 | 140.66460 | 177 ft | 24 kts | 173° |
| 2026-04-26 21:22 | -34.47672 | 140.66460 | 114 ft | 5 kts | 204° |
| 2026-04-26 21:22 | -34.47725 | 140.66441 | 125 ft | 7 kts | 195° |
| 2026-04-26 21:22 | -34.47783 | 140.66409 | 123 ft | 5 kts | 155° |
| 2026-04-26 21:23 | -34.47832 | 140.66441 | 112 ft | 1 kts | 185° |
| 2026-04-26 21:23 | -34.47838 | 140.66444 | 109 ft | 0 kts | 180° |